Portada
METAR-TAF:

METAR-TAF

Aeroports :

Tahití, Polinèsia Francesa

latitud: 17-33S, longitud: 149-37W, altitud: 2 m

Observació

L'informe es va fer fa 34 minuts, a les 21:00 UTC
Vent 11 kt del Sud-Oest
Temperatura 27°C
Humitat 70%
Pressió 1012 hPa
Visibilitat 10 km o més
Escasses núvols a una alçada de 2300 ft
Núvols disperses a una alçada de 3300 ft

METAR: NTAA 192100Z 23011KT 9999 FEW023 SCT033 27/21 Q1012 NOSIG

Hora: 11:34 (21:34 UTC)

Pronòstic

L'informe es va fer fa 4 hores i 34 minuts, a les 17:00 UTC
Pronòstic vàlid del 19 a les 18 UTC al 20 a les 24 UTC
Vent 6 kt del Sud-Oest
Visibilitat 10 km o més
Escasses núvols a una alçada de 2300 ft
Cel ennuvolat a una alçada de 5000 ft
Evolucionant progressivament
l' 20 a les 03 UTC al 20 a les 05 UTC
Vent 3 kt amb direcció variable

TAF: NTAA 191700Z 1918/2024 22006KT 9999 FEW023 BKN050 BECMG 2003/2005 VRB03KT

Observacions i pronòstics meteorològics de més de 4000 aeroports (METAR i TAF).

Les estacions disponibles són els punts grocs i vermells al mapa.

Posi el ratolí al punt desitjat per veure el nom de l'estació.

Feu clic per veure les observacions i els pronòstics meteorològics.

Per canviar el mapa: feu clic els botons verds amb una creu de color negre per apropar; al botó verd amb un guió per allunyar la imatge; o en les fletxes verdes per a mapes adjacents.


METAR-TAF: